Terminal Aerodrome Forecast
Issued by NWS Duluth, MN

Home | Current Version | Previous Version | Text Only | Print | Product List | Glossary On
Versions: 1 2 3 4 5 6 7 8 9 10 11 12 13 14 15 16 17 18 19 20 21 22 23 24 25 26 27 28 29
000
FTUS43 KDLH 182300
TAFDLH
TAF
KDLH 182328Z 1900/1924 11005KT P6SM OVC013
     FM190400 16004KT P6SM -SN OVC011
     FM190900 19004KT P6SM OVC070
     FM192000 16004KT P6SM OVC012=

USA.gov is the U.S. government's official web portal to all federal, state and local government web resources and services.